Time;durP1;ratioP1;P1;durP2;ratioP2;P2;SDS_P1;SDS_P2;PMS_P1;PMS_P2;Temp;Humidity;BMP_temperature;BMP_pressure;BME280_temperature;BME280_humidity;BME280_pressure;Samples;Min_cycle;Max_cycle;Signal;HPM_P1;HPM_P2
2024/01/07 00:00:05;;;;;;;17.60;8.80;;;;;;;;;;6258727;22;20385;-92
2024/01/07 00:02:31;;;;;;;15.47;8.83;;;;;;;;;;6259277;22;20397;-92
2024/01/07 00:05:01;;;;;;;14.80;9.37;;;;;;;;;;6259895;22;20380;-92
2024/01/07 00:07:27;;;;;;;17.43;10.63;;;;;;;;;;6259781;22;20389;-91
2024/01/07 00:09:53;;;;;;;14.80;8.43;;;;;;;;;;6257485;22;20409;-91
2024/01/07 00:12:20;;;;;;;14.17;8.37;;;;;;;;;;6257323;22;20535;-92
2024/01/07 00:14:46;;;;;;;16.10;8.70;;;;;;;;;;6258636;22;20413;-93
2024/01/07 00:17:12;;;;;;;13.83;8.53;;;;;;;;;;6255564;22;20408;-93
2024/01/07 00:19:39;;;;;;;16.27;9.80;;;;;;;;;;6256881;22;20385;-92
2024/01/07 00:22:05;;;;;;;13.10;8.70;;;;;;;;;;6255360;22;20385;-92
2024/01/07 00:24:31;;;;;;;15.50;10.90;;;;;;;;;;6257158;22;20464;-92
2024/01/07 00:26:57;;;;;;;15.63;10.90;;;;;;;;;;6256184;22;20389;-93
2024/01/07 00:29:23;;;;;;;13.10;9.07;;;;;;;;;;6257554;22;20472;-92
2024/01/07 00:31:51;;;;;;;17.13;9.80;;;;;;;;;;6200177;23;20394;-92
2024/01/07 00:34:17;;;;;;;17.20;10.40;;;;;;;;;;6227554;23;20496;-93
2024/01/07 00:36:44;;;;;;;16.30;9.97;;;;;;;;;;6222969;23;20381;-92
2024/01/07 00:39:11;;;;;;;18.57;9.00;;;;;;;;;;6201464;23;20367;-93
2024/01/07 00:41:37;;;;;;;15.50;10.47;;;;;;;;;;6201679;22;20459;-93
2024/01/07 00:44:06;;;;;;;13.37;9.10;;;;;;;;;;6228900;23;21372;-92
2024/01/07 00:46:32;;;;;;;11.67;8.07;;;;;;;;;;6200784;23;20379;-92
2024/01/07 00:48:58;;;;;;;14.03;7.70;;;;;;;;;;6199656;22;20398;-93
2024/01/07 00:51:24;;;;;;;15.57;8.63;;;;;;;;;;6201275;23;20382;-93
2024/01/07 00:53:50;;;;;;;16.93;10.23;;;;;;;;;;6197640;23;20468;-94
2024/01/07 00:56:16;;;;;;;13.67;8.97;;;;;;;;;;6225855;23;20383;-93
2024/01/07 00:58:42;;;;;;;13.83;8.63;;;;;;;;;;6197442;23;20409;-94
2024/01/07 01:01:08;;;;;;;15.97;9.70;;;;;;;;;;6200689;23;20387;-92
2024/01/07 01:03:34;;;;;;;15.07;8.80;;;;;;;;;;6244378;22;20372;-92
2024/01/07 01:06:02;;;;;;;14.07;8.90;;;;;;;;;;6256431;22;20381;-93
2024/01/07 01:08:28;;;;;;;13.80;8.90;;;;;;;;;;6256504;22;20417;-92
2024/01/07 01:10:54;;;;;;;17.73;10.73;;;;;;;;;;6255526;22;20389;-93
2024/01/07 01:13:20;;;;;;;22.83;9.73;;;;;;;;;;6256455;22;20463;-92
2024/01/07 01:15:46;;;;;;;17.70;11.30;;;;;;;;;;6258039;22;20401;-91
2024/01/07 01:18:12;;;;;;;20.10;10.43;;;;;;;;;;6256694;22;20382;-93
2024/01/07 01:20:38;;;;;;;18.63;11.23;;;;;;;;;;6256162;22;20374;-92
2024/01/07 01:23:04;;;;;;;25.17;11.17;;;;;;;;;;6257272;22;20396;-93
2024/01/07 01:25:30;;;;;;;19.03;11.07;;;;;;;;;;6256572;22;20393;-93
2024/01/07 01:27:57;;;;;;;18.53;11.17;;;;;;;;;;6256234;22;20484;-93
2024/01/07 01:30:23;;;;;;;32.13;11.23;;;;;;;;;;6258621;22;20381;-92
2024/01/07 01:32:49;;;;;;;35.70;11.60;;;;;;;;;;6259393;22;20384;-92
2024/01/07 01:35:15;;;;;;;27.17;12.00;;;;;;;;;;6257498;22;20405;-90
2024/01/07 01:37:41;;;;;;;27.00;13.07;;;;;;;;;;6259594;22;20404;-91
2024/01/07 01:40:07;;;;;;;43.00;12.73;;;;;;;;;;6257069;22;20385;-92
2024/01/07 01:42:33;;;;;;;21.00;11.23;;;;;;;;;;6256228;22;20372;-91
2024/01/07 01:45:01;;;;;;;33.67;10.70;;;;;;;;;;6257574;22;20354;-91
2024/01/07 01:47:27;;;;;;;28.27;13.37;;;;;;;;;;6258457;22;20388;-91
2024/01/07 01:49:53;;;;;;;44.13;12.80;;;;;;;;;;6256228;22;20370;-91
2024/01/07 01:52:19;;;;;;;68.00;15.20;;;;;;;;;;6256846;22;20384;-91
2024/01/07 01:54:46;;;;;;;29.40;13.50;;;;;;;;;;6255570;22;20425;-91
2024/01/07 01:57:16;;;;;;;35.80;12.90;;;;;;;;;;6259249;22;20444;-92
2024/01/07 01:59:43;;;;;;;28.20;11.13;;;;;;;;;;6256279;22;20428;-92
2024/01/07 02:02:09;;;;;;;45.33;13.57;;;;;;;;;;6286028;22;20419;-92
2024/01/07 02:04:35;;;;;;;70.90;14.77;;;;;;;;;;6256420;22;20412;-91
2024/01/07 02:07:01;;;;;;;29.87;13.63;;;;;;;;;;6258616;22;20369;-91
2024/01/07 02:09:27;;;;;;;24.30;10.90;;;;;;;;;;6258052;22;20791;-91
2024/01/07 02:12:02;;;;;;;28.37;13.07;;;;;;;;;;6258718;22;20385;-90
2024/01/07 02:14:28;;;;;;;29.80;11.67;;;;;;;;;;6281798;22;20500;-91
2024/01/07 02:16:54;;;;;;;34.40;14.67;;;;;;;;;;6257774;22;20384;-91
2024/01/07 02:19:20;;;;;;;21.47;12.57;;;;;;;;;;6257813;22;20396;-91
2024/01/07 02:21:46;;;;;;;28.07;13.57;;;;;;;;;;6258538;22;20756;-93
2024/01/07 02:24:18;;;;;;;23.63;12.03;;;;;;;;;;6258375;22;20480;-91
2024/01/07 02:26:45;;;;;;;24.60;12.10;;;;;;;;;;6260387;22;20390;-91
2024/01/07 02:29:11;;;;;;;39.97;14.10;;;;;;;;;;6261130;22;20373;-91
2024/01/07 02:31:37;;;;;;;22.93;11.40;;;;;;;;;;6261930;22;20380;-92
2024/01/07 02:34:03;;;;;;;28.40;13.73;;;;;;;;;;6261423;22;20978;-92
2024/01/07 02:36:29;;;;;;;29.90;14.57;;;;;;;;;;6259973;22;20385;-92
2024/01/07 02:38:55;;;;;;;23.53;14.73;;;;;;;;;;6261199;22;20379;-91
2024/01/07 02:41:25;;;;;;;31.37;14.30;;;;;;;;;;6261700;22;20396;-92
2024/01/07 02:43:51;;;;;;;23.40;13.30;;;;;;;;;;6260887;22;20434;-91
2024/01/07 02:46:17;;;;;;;24.23;13.00;;;;;;;;;;6259914;22;20397;-92
2024/01/07 02:48:43;;;;;;;23.90;13.27;;;;;;;;;;6259286;22;20381;-91
2024/01/07 02:51:09;;;;;;;23.13;13.73;;;;;;;;;;6261117;22;20378;-92
2024/01/07 02:53:35;;;;;;;26.70;12.90;;;;;;;;;;6259101;22;20504;-91
2024/01/07 02:56:01;;;;;;;28.67;15.27;;;;;;;;;;6260567;22;20375;-92
2024/01/07 02:58:27;;;;;;;25.67;12.40;;;;;;;;;;6259860;22;20468;-91
2024/01/07 03:00:53;;;;;;;20.60;12.43;;;;;;;;;;6260759;22;20405;-91
2024/01/07 03:03:19;;;;;;;43.83;12.87;;;;;;;;;;6262955;22;20362;-92
2024/01/07 03:05:45;;;;;;;20.40;12.37;;;;;;;;;;6260250;22;20373;-91
2024/01/07 03:08:11;;;;;;;18.03;11.10;;;;;;;;;;6261186;22;20429;-92
2024/01/07 03:10:37;;;;;;;19.17;12.00;;;;;;;;;;6261172;22;20856;-92
2024/01/07 03:13:03;;;;;;;19.37;13.20;;;;;;;;;;6261923;22;20416;-91
2024/01/07 03:15:29;;;;;;;19.60;10.43;;;;;;;;;;6260512;22;20381;-91
2024/01/07 03:17:55;;;;;;;20.87;13.17;;;;;;;;;;6260849;22;20396;-92
2024/01/07 03:20:21;;;;;;;25.40;12.17;;;;;;;;;;6261326;22;20377;-90
2024/01/07 03:22:47;;;;;;;19.07;12.20;;;;;;;;;;6259673;22;20377;-91
2024/01/07 03:25:13;;;;;;;23.97;13.53;;;;;;;;;;6261816;22;20392;-91
2024/01/07 03:27:39;;;;;;;21.40;12.30;;;;;;;;;;6259382;22;20405;-91
2024/01/07 03:30:05;;;;;;;16.23;9.37;;;;;;;;;;6260059;22;20389;-91
2024/01/07 03:32:31;;;;;;;18.93;12.00;;;;;;;;;;6259323;22;20456;-91
2024/01/07 03:34:57;;;;;;;20.33;10.60;;;;;;;;;;6286352;22;20406;-92
2024/01/07 03:37:23;;;;;;;24.90;13.03;;;;;;;;;;6259863;22;20374;-91
2024/01/07 03:39:49;;;;;;;18.37;10.20;;;;;;;;;;6258864;22;20446;-91
2024/01/07 03:42:15;;;;;;;20.93;11.43;;;;;;;;;;6260796;22;20389;-92
2024/01/07 03:44:41;;;;;;;17.70;11.20;;;;;;;;;;6261733;22;20428;-91
2024/01/07 03:47:07;;;;;;;16.30;10.50;;;;;;;;;;6261831;22;20884;-92
2024/01/07 03:49:33;;;;;;;23.47;13.67;;;;;;;;;;6261965;22;20377;-92
2024/01/07 03:51:59;;;;;;;16.33;11.30;;;;;;;;;;6259073;22;20377;-94
2024/01/07 03:54:25;;;;;;;22.83;11.57;;;;;;;;;;6258859;22;20425;-93
2024/01/07 03:56:51;;;;;;;21.47;11.70;;;;;;;;;;6258707;22;20741;-93
2024/01/07 03:59:17;;;;;;;15.67;11.97;;;;;;;;;;6259642;22;20377;-93
2024/01/07 04:01:43;;;;;;;19.77;10.13;;;;;;;;;;6257439;22;20394;-94
2024/01/07 04:04:09;;;;;;;22.50;11.30;;;;;;;;;;6285599;22;20368;-93
2024/01/07 04:06:35;;;;;;;16.97;9.13;;;;;;;;;;6258845;22;20419;-94
2024/01/07 04:09:02;;;;;;;20.83;13.10;;;;;;;;;;6263702;22;20365;-92
2024/01/07 04:11:28;;;;;;;21.87;10.70;;;;;;;;;;6259752;22;20460;-94
2024/01/07 04:13:54;;;;;;;19.87;11.07;;;;;;;;;;6258058;22;20439;-93
2024/01/07 04:16:20;;;;;;;16.30;10.83;;;;;;;;;;6257674;22;20436;-90
2024/01/07 04:18:48;;;;;;;20.47;11.37;;;;;;;;;;6258697;22;20474;-93
2024/01/07 04:21:14;;;;;;;16.50;10.10;;;;;;;;;;6258105;22;20387;-93
2024/01/07 04:23:43;;;;;;;19.40;10.50;;;;;;;;;;6284146;22;20389;-93
2024/01/07 04:26:09;;;;;;;23.97;12.70;;;;;;;;;;6259572;22;20386;-91
2024/01/07 04:28:35;;;;;;;20.37;10.37;;;;;;;;;;6258879;22;20377;-93
2024/01/07 04:31:01;;;;;;;20.97;10.60;;;;;;;;;;6259370;22;20400;-94
2024/01/07 04:33:27;;;;;;;22.87;10.30;;;;;;;;;;6258863;22;20772;-93
2024/01/07 04:35:57;;;;;;;16.70;11.97;;;;;;;;;;6260572;22;20385;-94
2024/01/07 04:38:24;;;;;;;17.67;10.13;;;;;;;;;;6225816;22;20394;-93
2024/01/07 04:40:50;;;;;;;13.50;9.13;;;;;;;;;;6229922;23;20393;-94
2024/01/07 04:43:16;;;;;;;15.80;10.80;;;;;;;;;;6200821;23;20384;-93
2024/01/07 04:45:42;;;;;;;16.83;9.30;;;;;;;;;;6227607;23;20402;-93
2024/01/07 04:48:08;;;;;;;18.73;12.30;;;;;;;;;;6201910;23;20378;-93
2024/01/07 04:50:34;;;;;;;13.20;7.70;;;;;;;;;;6228874;23;20378;-93
2024/01/07 04:53:00;;;;;;;17.50;11.20;;;;;;;;;;6203338;23;20697;-92
2024/01/07 04:55:26;;;;;;;20.83;9.53;;;;;;;;;;6227451;22;20906;-92
2024/01/07 04:57:52;;;;;;;15.30;10.60;;;;;;;;;;6202498;22;20382;-91
2024/01/07 05:00:18;;;;;;;17.00;9.50;;;;;;;;;;6225755;23;20381;-93
2024/01/07 05:02:44;;;;;;;23.53;8.90;;;;;;;;;;6199747;23;20435;-92
2024/01/07 05:05:10;;;;;;;12.83;8.20;;;;;;;;;;6201569;23;20386;-93
2024/01/07 05:07:36;;;;;;;12.50;9.13;;;;;;;;;;6201225;22;20425;-92
2024/01/07 05:10:03;;;;;;;13.10;8.43;;;;;;;;;;6248565;22;20369;-91
2024/01/07 05:12:29;;;;;;;16.37;9.87;;;;;;;;;;6283431;22;20435;-93
2024/01/07 05:14:55;;;;;;;15.17;10.47;;;;;;;;;;6261457;22;20912;-93
2024/01/07 05:17:21;;;;;;;15.20;11.20;;;;;;;;;;6257599;22;20419;-93
2024/01/07 05:19:47;;;;;;;13.73;7.90;;;;;;;;;;6259328;22;20387;-93
2024/01/07 05:22:13;;;;;;;19.53;10.20;;;;;;;;;;6260168;22;20386;-93
2024/01/07 05:24:39;;;;;;;16.40;9.53;;;;;;;;;;6259481;22;20384;-92
2024/01/07 05:27:05;;;;;;;18.07;10.33;;;;;;;;;;6258861;22;20541;-91
2024/01/07 05:29:33;;;;;;;14.93;8.10;;;;;;;;;;6259960;22;20463;-91
2024/01/07 05:32:00;;;;;;;15.73;7.50;;;;;;;;;;6258783;22;20416;-90
2024/01/07 05:34:26;;;;;;;16.03;8.67;;;;;;;;;;6259616;22;20424;-90
2024/01/07 05:36:52;;;;;;;14.03;9.67;;;;;;;;;;6258316;22;20427;-90
2024/01/07 05:39:18;;;;;;;14.80;8.77;;;;;;;;;;6257676;22;20381;-91
2024/01/07 05:41:44;;;;;;;18.30;8.43;;;;;;;;;;6257222;22;20397;-90
2024/01/07 05:44:10;;;;;;;15.10;8.40;;;;;;;;;;6259432;22;20380;-91
2024/01/07 05:46:39;;;;;;;18.67;11.90;;;;;;;;;;6259259;22;20377;-91
2024/01/07 05:49:07;;;;;;;21.07;10.43;;;;;;;;;;6258995;22;20377;-91
2024/01/07 05:51:33;;;;;;;18.60;7.87;;;;;;;;;;6257274;22;20385;-92
2024/01/07 05:53:59;;;;;;;20.70;11.17;;;;;;;;;;6257877;22;20900;-93
2024/01/07 05:56:25;;;;;;;12.67;8.17;;;;;;;;;;6256423;22;20373;-91
2024/01/07 05:58:51;;;;;;;16.53;9.10;;;;;;;;;;6258830;22;20382;-91
2024/01/07 06:01:20;;;;;;;10.90;7.90;;;;;;;;;;6259898;22;20425;-90
2024/01/07 06:03:49;;;;;;;15.37;8.60;;;;;;;;;;6286346;22;20495;-91
2024/01/07 06:06:16;;;;;;;18.50;11.00;;;;;;;;;;6261130;22;20369;-91
2024/01/07 06:08:42;;;;;;;15.87;9.00;;;;;;;;;;6260431;22;20380;-91
2024/01/07 06:11:08;;;;;;;12.90;8.17;;;;;;;;;;6261054;22;20413;-91
2024/01/07 06:13:34;;;;;;;12.70;8.93;;;;;;;;;;6259962;22;20472;-91
2024/01/07 06:16:00;;;;;;;13.40;8.90;;;;;;;;;;6228360;23;20378;-91
2024/01/07 06:18:26;;;;;;;13.40;9.20;;;;;;;;;;6202348;23;20386;-91
2024/01/07 06:20:52;;;;;;;16.40;9.73;;;;;;;;;;6199847;23;20406;-91
2024/01/07 06:23:18;;;;;;;17.30;8.63;;;;;;;;;;6202353;22;20394;-90
2024/01/07 06:25:44;;;;;;;13.50;8.97;;;;;;;;;;6205190;23;20374;-93
2024/01/07 06:28:10;;;;;;;15.23;8.00;;;;;;;;;;6201819;23;20464;-91
2024/01/07 06:30:36;;;;;;;14.20;7.77;;;;;;;;;;6204915;22;20453;-91
2024/01/07 06:33:02;;;;;;;12.47;8.77;;;;;;;;;;6202665;23;20377;-92
2024/01/07 06:35:28;;;;;;;13.10;9.80;;;;;;;;;;6203323;23;20374;-91
2024/01/07 06:37:54;;;;;;;13.93;8.27;;;;;;;;;;6201564;23;20374;-91
2024/01/07 06:40:21;;;;;;;10.60;7.83;;;;;;;;;;6203226;23;20385;-90
2024/01/07 06:42:48;;;;;;;12.67;7.97;;;;;;;;;;6200790;23;20369;-91
2024/01/07 06:45:14;;;;;;;13.57;7.90;;;;;;;;;;6202749;23;20384;-91
2024/01/07 06:47:40;;;;;;;10.33;6.97;;;;;;;;;;6245059;22;20768;-92
2024/01/07 06:50:07;;;;;;;9.73;6.23;;;;;;;;;;6260080;22;20444;-91
2024/01/07 06:52:33;;;;;;;13.10;8.47;;;;;;;;;;6259643;22;20397;-91
2024/01/07 06:54:59;;;;;;;11.47;9.93;;;;;;;;;;6259008;22;20435;-91
2024/01/07 06:57:25;;;;;;;12.40;8.00;;;;;;;;;;6258735;22;20384;-91
2024/01/07 06:59:51;;;;;;;15.80;9.07;;;;;;;;;;6262763;22;20369;-93
2024/01/07 07:02:17;;;;;;;8.70;7.10;;;;;;;;;;6258871;22;20377;-92
2024/01/07 07:04:43;;;;;;;14.20;8.90;;;;;;;;;;6259484;22;20369;-91
2024/01/07 07:07:09;;;;;;;12.37;8.07;;;;;;;;;;6258177;22;20428;-91
2024/01/07 07:09:35;;;;;;;16.87;9.37;;;;;;;;;;6259898;22;20382;-92
2024/01/07 07:12:01;;;;;;;10.00;7.40;;;;;;;;;;6258030;22;20476;-92
2024/01/07 07:14:27;;;;;;;14.07;8.20;;;;;;;;;;6259071;22;20431;-93
2024/01/07 07:16:53;;;;;;;10.40;8.93;;;;;;;;;;6226435;23;20359;-92
2024/01/07 07:19:19;;;;;;;10.80;8.07;;;;;;;;;;6228002;23;20379;-93
2024/01/07 07:21:45;;;;;;;6.80;5.73;;;;;;;;;;6228697;23;20408;-91
2024/01/07 07:24:11;;;;;;;5.67;3.93;;;;;;;;;;6226223;23;20449;-92
2024/01/07 07:26:40;;;;;;;9.43;7.73;;;;;;;;;;6227861;22;20421;-92
2024/01/07 07:29:06;;;;;;;10.27;6.60;;;;;;;;;;6228222;23;20397;-92
2024/01/07 07:31:32;;;;;;;11.00;7.50;;;;;;;;;;6228976;23;20386;-92
2024/01/07 07:33:58;;;;;;;12.77;6.87;;;;;;;;;;6228928;23;20608;-92
2024/01/07 07:36:24;;;;;;;10.90;7.10;;;;;;;;;;6228241;23;20750;-92
2024/01/07 07:38:50;;;;;;;6.20;5.30;;;;;;;;;;6228908;23;20421;-92
2024/01/07 07:41:16;;;;;;;6.30;5.70;;;;;;;;;;6227392;23;20469;-92
2024/01/07 07:43:42;;;;;;;4.60;4.17;;;;;;;;;;6231314;22;20391;-93
2024/01/07 07:46:08;;;;;;;7.40;5.73;;;;;;;;;;6228107;22;20402;-92
2024/01/07 07:48:34;;;;;;;7.10;4.47;;;;;;;;;;6253606;22;20378;-93
2024/01/07 07:51:00;;;;;;;7.10;5.40;;;;;;;;;;6260701;22;20461;-93
2024/01/07 07:53:27;;;;;;;7.67;5.40;;;;;;;;;;6262181;22;20506;-92
2024/01/07 07:55:53;;;;;;;4.37;3.97;;;;;;;;;;6259693;22;20864;-93
2024/01/07 07:58:19;;;;;;;6.13;5.10;;;;;;;;;;6260993;22;20385;-93
2024/01/07 08:00:46;;;;;;;7.47;4.67;;;;;;;;;;6261523;22;20397;-92
2024/01/07 08:03:12;;;;;;;6.97;5.23;;;;;;;;;;6259180;22;20377;-92
2024/01/07 08:05:39;;;;;;;6.07;5.47;;;;;;;;;;6261405;22;20376;-92
2024/01/07 08:08:06;;;;;;;7.00;4.73;;;;;;;;;;6259227;22;20452;-92
2024/01/07 08:10:32;;;;;;;6.03;4.20;;;;;;;;;;6260421;22;20385;-93
2024/01/07 08:12:58;;;;;;;7.20;4.63;;;;;;;;;;6259908;22;20397;-92
2024/01/07 08:15:26;;;;;;;9.00;5.10;;;;;;;;;;6260166;22;20401;-92
2024/01/07 08:17:51;;;;;;;5.87;3.87;;;;;;;;;;6259363;22;20369;-91
2024/01/07 08:20:19;;;;;;;4.90;3.83;;;;;;;;;;6258383;22;20744;-90
2024/01/07 08:22:45;;;;;;;8.90;4.90;;;;;;;;;;6285006;22;20357;-91
2024/01/07 08:25:11;;;;;;;6.00;4.57;;;;;;;;;;6259167;22;20388;-91
2024/01/07 08:27:37;;;;;;;7.00;4.63;;;;;;;;;;6257758;22;20409;-89
2024/01/07 08:30:03;;;;;;;7.70;5.70;;;;;;;;;;6283521;22;20349;-91
2024/01/07 08:32:29;;;;;;;7.20;3.93;;;;;;;;;;6257651;22;20403;-91
2024/01/07 08:34:55;;;;;;;8.47;3.57;;;;;;;;;;6257701;22;20449;-90
2024/01/07 08:37:21;;;;;;;6.13;3.80;;;;;;;;;;6255836;22;20450;-91
2024/01/07 08:39:47;;;;;;;9.60;4.60;;;;;;;;;;6255582;22;20385;-90
2024/01/07 08:42:13;;;;;;;9.80;5.60;;;;;;;;;;6282572;22;20385;-91
2024/01/07 08:44:39;;;;;;;6.53;5.80;;;;;;;;;;6281713;22;20399;-90
2024/01/07 08:47:05;;;;;;;5.50;3.97;;;;;;;;;;6283366;22;20366;-91
2024/01/07 08:49:34;;;;;;;7.83;4.50;;;;;;;;;;6259109;22;20467;-90
2024/01/07 08:52:00;;;;;;;7.10;4.47;;;;;;;;;;6257485;22;20384;-90
2024/01/07 08:54:26;;;;;;;5.43;4.40;;;;;;;;;;6256623;22;20484;-89
2024/01/07 08:56:52;;;;;;;8.60;4.90;;;;;;;;;;6255559;22;20411;-90
2024/01/07 08:59:18;;;;;;;6.40;5.50;;;;;;;;;;6254432;22;20376;-90
2024/01/07 09:01:44;;;;;;;6.17;4.50;;;;;;;;;;6255872;22;20427;-89
2024/01/07 09:04:10;;;;;;;6.03;4.53;;;;;;;;;;6259633;22;20374;-91
2024/01/07 09:06:36;;;;;;;7.17;4.07;;;;;;;;;;6257532;22;20755;-92
2024/01/07 09:09:05;;;;;;;5.30;3.40;;;;;;;;;;6254952;22;20420;-90
2024/01/07 09:11:31;;;;;;;4.80;4.30;;;;;;;;;;6258831;22;20952;-90
2024/01/07 09:13:57;;;;;;;3.80;2.97;;;;;;;;;;6255873;22;20428;-89
2024/01/07 09:16:23;;;;;;;3.80;2.80;;;;;;;;;;6256653;22;20443;-91
2024/01/07 09:18:50;;;;;;;5.00;3.37;;;;;;;;;;6283413;22;20438;-91
2024/01/07 09:21:16;;;;;;;2.80;2.37;;;;;;;;;;6263778;22;20377;-92
2024/01/07 09:23:44;;;;;;;3.83;3.47;;;;;;;;;;6266260;22;20377;-92
2024/01/07 09:26:10;;;;;;;5.50;3.63;;;;;;;;;;6270118;22;20389;-91
2024/01/07 09:28:36;;;;;;;5.07;4.57;;;;;;;;;;6265025;22;20377;-91
2024/01/07 09:31:02;;;;;;;4.90;3.60;;;;;;;;;;6292331;22;20378;-91
2024/01/07 09:33:28;;;;;;;4.87;3.10;;;;;;;;;;6263229;22;20459;-90
2024/01/07 09:35:54;;;;;;;6.83;4.23;;;;;;;;;;6266299;22;20877;-91
2024/01/07 09:38:20;;;;;;;4.83;3.77;;;;;;;;;;6264927;22;20364;-92
2024/01/07 09:40:46;;;;;;;4.00;3.00;;;;;;;;;;6264495;22;20373;-91
2024/01/07 09:43:12;;;;;;;6.07;3.30;;;;;;;;;;6263863;22;20385;-91
2024/01/07 09:45:42;;;;;;;7.33;4.13;;;;;;;;;;6292669;22;20366;-90
2024/01/07 09:48:08;;;;;;;3.63;3.33;;;;;;;;;;6286510;22;20392;-89
2024/01/07 09:50:34;;;;;;;3.70;3.37;;;;;;;;;;6291511;22;20370;-90
2024/01/07 09:53:02;;;;;;;3.57;2.23;;;;;;;;;;6265326;22;20452;-89
2024/01/07 09:55:28;;;;;;;2.70;2.37;;;;;;;;;;6267250;22;20409;-91
2024/01/07 09:57:54;;;;;;;4.33;2.70;;;;;;;;;;6266212;22;20374;-92
2024/01/07 10:00:26;;;;;;;6.60;3.50;;;;;;;;;;6266159;22;20373;-91
2024/01/07 10:02:52;;;;;;;4.70;3.60;;;;;;;;;;6265881;22;20704;-91
2024/01/07 10:05:18;;;;;;;8.73;3.53;;;;;;;;;;6267175;22;20381;-92
2024/01/07 10:07:44;;;;;;;4.00;2.93;;;;;;;;;;6266561;22;20384;-92
2024/01/07 10:10:12;;;;;;;3.90;3.53;;;;;;;;;;6264242;22;20396;-92
2024/01/07 10:12:38;;;;;;;4.97;3.23;;;;;;;;;;6266514;22;20379;-92
2024/01/07 10:15:05;;;;;;;3.50;3.13;;;;;;;;;;6266616;22;20439;-91
2024/01/07 10:17:34;;;;;;;5.43;4.10;;;;;;;;;;6266741;22;20389;-90
2024/01/07 10:20:00;;;;;;;3.13;2.87;;;;;;;;;;6266409;22;20374;-92
2024/01/07 10:22:26;;;;;;;5.47;3.90;;;;;;;;;;6266622;22;20381;-92
2024/01/07 10:24:52;;;;;;;5.83;4.47;;;;;;;;;;6266955;22;20419;-90
2024/01/07 10:27:18;;;;;;;15.20;5.60;;;;;;;;;;6266949;22;20433;-90
2024/01/07 10:29:49;;;;;;;5.67;5.07;;;;;;;;;;6264838;22;20381;-89
2024/01/07 10:32:15;;;;;;;5.90;4.20;;;;;;;;;;6267004;22;20366;-88
2024/01/07 10:34:41;;;;;;;4.93;3.30;;;;;;;;;;6264233;22;20437;-90
2024/01/07 10:37:08;;;;;;;3.53;3.23;;;;;;;;;;6265605;22;20456;-90
2024/01/07 10:39:34;;;;;;;3.17;2.60;;;;;;;;;;6264982;22;20977;-89
2024/01/07 10:42:00;;;;;;;3.70;2.40;;;;;;;;;;6271070;22;20439;-90
2024/01/07 10:44:27;;;;;;;4.57;3.37;;;;;;;;;;6262766;22;20369;-89
2024/01/07 10:46:57;;;;;;;5.30;4.40;;;;;;;;;;6291203;22;20377;-89
2024/01/07 10:49:26;;;;;;;4.60;2.97;;;;;;;;;;6263741;22;20381;-88
2024/01/07 10:52:05;;;;;;;3.53;2.57;;;;;;;;;;6265589;22;20381;-89
2024/01/07 10:54:33;;;;;;;6.93;4.43;;;;;;;;;;6231618;23;20460;-92
2024/01/07 10:57:00;;;;;;;8.50;4.37;;;;;;;;;;6208023;23;20417;-89
2024/01/07 10:59:29;;;;;;;4.97;2.43;;;;;;;;;;6232081;23;20363;-90
2024/01/07 11:01:55;;;;;;;4.10;3.57;;;;;;;;;;6205098;22;20541;-90
2024/01/07 11:04:24;;;;;;;6.10;4.03;;;;;;;;;;6202359;22;20461;-90
2024/01/07 11:07:00;;;;;;;4.30;3.57;;;;;;;;;;6206337;22;20399;-90
2024/01/07 11:09:33;;;;;;;3.37;3.07;;;;;;;;;;6205177;23;20422;-90
2024/01/07 11:12:02;;;;;;;3.03;2.63;;;;;;;;;;6200776;23;20370;-89
2024/01/07 11:14:34;;;;;;;2.50;2.20;;;;;;;;;;6227888;22;20469;-91
2024/01/07 11:17:02;;;;;;;6.53;4.40;;;;;;;;;;6228919;23;20377;-91
2024/01/07 11:19:29;;;;;;;5.33;3.47;;;;;;;;;;6201065;23;20409;-91
2024/01/07 11:22:15;;;;;;;3.93;3.03;;;;;;;;;;6201281;23;20464;-90
2024/01/07 11:24:42;;;;;;;4.47;4.07;;;;;;;;;;6231913;22;20879;-90
2024/01/07 11:27:14;;;;;;;4.27;3.17;;;;;;;;;;6260684;22;20391;-90
2024/01/07 11:29:40;;;;;;;5.57;3.70;;;;;;;;;;6261674;22;20382;-91
2024/01/07 11:32:09;;;;;;;3.13;2.83;;;;;;;;;;6258620;22;20393;-90
2024/01/07 11:34:47;;;;;;;5.97;3.80;;;;;;;;;;6261258;22;20831;-90
2024/01/07 11:37:13;;;;;;;11.23;7.00;;;;;;;;;;6259831;22;20391;-90
2024/01/07 11:39:44;;;;;;;2.97;2.60;;;;;;;;;;6261263;22;20433;-90
2024/01/07 11:42:11;;;;;;;3.70;2.70;;;;;;;;;;6260042;22;20395;-91
2024/01/07 11:44:38;;;;;;;5.00;4.50;;;;;;;;;;6262505;22;20381;-90
2024/01/07 11:47:09;;;;;;;3.57;3.27;;;;;;;;;;6258794;22;20377;-88
2024/01/07 11:49:39;;;;;;;3.47;3.00;;;;;;;;;;6260705;22;20397;-89
2024/01/07 11:52:10;;;;;;;5.43;3.73;;;;;;;;;;6257413;22;20392;-89
2024/01/07 11:54:37;;;;;;;7.23;4.30;;;;;;;;;;6284320;22;20433;-89
2024/01/07 11:57:04;;;;;;;5.17;4.53;;;;;;;;;;6257448;22;20389;-89
2024/01/07 11:59:30;;;;;;;4.57;3.47;;;;;;;;;;6260653;22;20871;-90
2024/01/07 12:01:56;;;;;;;4.63;3.27;;;;;;;;;;6284957;22;20381;-90
2024/01/07 12:04:22;;;;;;;4.73;4.17;;;;;;;;;;6261220;22;20404;-87
2024/01/07 12:06:49;;;;;;;5.30;3.80;;;;;;;;;;6285432;22;20362;-90
2024/01/07 12:09:15;;;;;;;7.60;4.20;;;;;;;;;;6262888;22;20381;-89
2024/01/07 12:11:41;;;;;;;3.57;3.27;;;;;;;;;;6266881;22;20388;-89
2024/01/07 12:14:10;;;;;;;3.73;3.40;;;;;;;;;;6289214;22;20425;-89
2024/01/07 12:16:36;;;;;;;4.80;3.90;;;;;;;;;;6291930;22;20365;-89
2024/01/07 12:19:03;;;;;;;4.40;3.40;;;;;;;;;;6264762;22;20413;-89
2024/01/07 12:21:29;;;;;;;3.80;3.23;;;;;;;;;;6265288;22;20373;-89
2024/01/07 12:23:56;;;;;;;8.57;4.70;;;;;;;;;;6267058;22;21234;-88
2024/01/07 12:26:30;;;;;;;4.90;3.30;;;;;;;;;;6265533;22;20519;-90
2024/01/07 12:28:59;;;;;;;4.50;2.67;;;;;;;;;;6296655;22;20373;-90
2024/01/07 12:31:31;;;;;;;4.60;3.60;;;;;;;;;;6269213;22;20431;-89
2024/01/07 12:33:57;;;;;;;5.60;3.80;;;;;;;;;;6266155;22;20424;-90
2024/01/07 12:36:24;;;;;;;7.30;4.93;;;;;;;;;;6265476;22;20456;-91
2024/01/07 12:38:53;;;;;;;7.80;4.80;;;;;;;;;;6267051;22;20381;-90
2024/01/07 12:41:25;;;;;;;7.27;4.63;;;;;;;;;;6265593;22;20389;-89
2024/01/07 12:43:53;;;;;;;5.90;4.27;;;;;;;;;;6267123;22;20375;-89
2024/01/07 12:46:22;;;;;;;8.90;5.60;;;;;;;;;;6266916;22;20916;-90
2024/01/07 12:48:48;;;;;;;4.87;4.47;;;;;;;;;;6289976;22;20401;-92
2024/01/07 12:51:17;;;;;;;7.23;4.40;;;;;;;;;;6266304;22;20373;-92
2024/01/07 12:53:43;;;;;;;5.97;5.20;;;;;;;;;;6261932;22;20425;-91
2024/01/07 12:56:09;;;;;;;5.43;4.07;;;;;;;;;;6262329;22;20366;-93
2024/01/07 12:58:45;;;;;;;7.33;5.03;;;;;;;;;;6263653;22;20390;-94
2024/01/07 13:01:11;;;;;;;7.93;5.10;;;;;;;;;;6284155;22;20426;-93
2024/01/07 13:03:37;;;;;;;5.73;4.50;;;;;;;;;;6259380;22;20445;-93
2024/01/07 13:06:03;;;;;;;6.67;4.97;;;;;;;;;;6259766;22;20377;-94
2024/01/07 13:08:29;;;;;;;6.53;4.50;;;;;;;;;;6260119;22;20895;-90
2024/01/07 13:11:00;;;;;;;7.37;4.77;;;;;;;;;;6259787;22;20409;-94
2024/01/07 13:13:26;;;;;;;6.37;5.77;;;;;;;;;;6261079;22;20425;-94
2024/01/07 13:15:52;;;;;;;6.27;5.50;;;;;;;;;;6262523;22;20745;-94
2024/01/07 13:18:18;;;;;;;4.77;3.77;;;;;;;;;;6262469;22;20420;-95
2024/01/07 13:20:44;;;;;;;9.57;6.07;;;;;;;;;;6262820;22;20849;-93
2024/01/07 13:23:13;;;;;;;5.30;4.80;;;;;;;;;;6233150;22;20401;-94
2024/01/07 13:25:39;;;;;;;7.00;4.50;;;;;;;;;;6209093;22;20398;-93
2024/01/07 13:28:10;;;;;;;6.03;4.83;;;;;;;;;;6205523;23;20751;-95
2024/01/07 13:30:40;;;;;;;8.33;6.43;;;;;;;;;;6205052;22;20394;-95
2024/01/07 13:33:09;;;;;;;5.90;4.63;;;;;;;;;;6207483;23;20389;-95
2024/01/07 13:35:44;;;;;;;6.90;5.50;;;;;;;;;;6206602;22;20401;-94
2024/01/07 13:38:10;;;;;;;6.47;5.00;;;;;;;;;;6202569;22;20489;-95
2024/01/07 13:40:36;;;;;;;7.60;4.27;;;;;;;;;;6177657;23;20355;-94
2024/01/07 13:43:03;;;;;;;6.90;3.80;;;;;;;;;;6174892;23;20418;-92
2024/01/07 13:45:29;;;;;;;4.70;4.23;;;;;;;;;;6176610;22;20382;-94
2024/01/07 13:47:56;;;;;;;7.30;5.33;;;;;;;;;;6175908;22;20355;-94
2024/01/07 13:50:22;;;;;;;7.40;4.83;;;;;;;;;;6225916;23;20371;-94
2024/01/07 13:52:49;;;;;;;7.63;4.33;;;;;;;;;;6174696;23;20599;-93
2024/01/07 13:55:16;;;;;;;6.53;5.00;;;;;;;;;;6259592;22;20467;-93
2024/01/07 13:57:42;;;;;;;7.60;4.77;;;;;;;;;;6235621;22;20468;-94
2024/01/07 14:00:09;;;;;;;3.70;3.13;;;;;;;;;;6233960;22;20421;-95
2024/01/07 14:02:37;;;;;;;5.30;4.33;;;;;;;;;;6234270;22;20411;-94
2024/01/07 14:05:03;;;;;;;6.10;5.50;;;;;;;;;;6235196;22;20433;-93
2024/01/07 14:07:29;;;;;;;9.67;5.43;;;;;;;;;;6236162;22;20424;-95
2024/01/07 14:09:57;;;;;;;7.80;4.97;;;;;;;;;;6256198;22;20370;-94
2024/01/07 14:12:24;;;;;;;4.10;3.13;;;;;;;;;;6288028;22;20373;-93
2024/01/07 14:14:50;;;;;;;13.10;6.27;;;;;;;;;;6261837;22;20429;-93
2024/01/07 14:17:16;;;;;;;7.37;4.30;;;;;;;;;;6261454;22;20443;-94
2024/01/07 14:19:47;;;;;;;5.70;5.20;;;;;;;;;;6262349;22;20805;-93
2024/01/07 14:22:19;;;;;;;7.23;5.10;;;;;;;;;;6264630;22;20365;-94
2024/01/07 14:24:47;;;;;;;5.97;4.37;;;;;;;;;;6259934;22;20401;-93
2024/01/07 14:27:14;;;;;;;8.57;6.50;;;;;;;;;;6261585;22;20445;-94
2024/01/07 14:29:41;;;;;;;8.73;5.67;;;;;;;;;;6262397;22;20405;-94